Time;durP1;ratioP1;P1;durP2;ratioP2;P2;SDS_P1;SDS_P2;PMS_P1;PMS_P2;Temp;Humidity;BMP_temperature;BMP_pressure;BME280_temperature;BME280_humidity;BME280_pressure;Samples;Min_cycle;Max_cycle;Signal;HPM_P1;HPM_P2
2021/12/11 00:01:42;;;;;;;0.30;0.30;;;3.40;99.20;;;;;;5054037;28;20231;-69
2021/12/11 00:04:21;;;;;;;0.40;0.40;;;3.30;99.10;;;;;;5053910;28;20197;-69
2021/12/11 00:06:52;;;;;;;0.30;0.30;;;3.40;99.30;;;;;;5053986;28;20171;-69
2021/12/11 00:09:31;;;;;;;0.30;0.30;;;3.40;98.90;;;;;;5053793;28;20213;-69
2021/12/11 00:12:05;;;;;;;0.30;0.30;;;3.50;98.90;;;;;;5054090;28;20149;-69
2021/12/11 00:14:34;;;;;;;0.30;0.30;;;3.50;99.00;;;;;;5053890;28;20172;-69
2021/12/11 00:17:00;;;;;;;0.30;0.30;;;3.50;98.90;;;;;;5053749;28;20170;-69
2021/12/11 00:19:30;;;;;;;0.30;0.30;;;3.60;98.90;;;;;;5053479;28;20531;-70
2021/12/11 00:22:08;;;;;;;0.30;0.30;;;3.60;98.80;;;;;;5053865;28;20173;-70
2021/12/11 00:24:35;;;;;;;0.38;0.38;;;3.60;98.70;;;;;;5053470;28;20212;-70
2021/12/11 00:27:33;;;;;;;0.40;0.40;;;3.50;98.60;;;;;;5053902;28;20174;-69
2021/12/11 00:30:00;;;;;;;0.35;0.35;;;3.30;98.90;;;;;;5052761;28;20208;-69
2021/12/11 00:32:29;;;;;;;0.40;0.40;;;3.30;99.10;;;;;;5053440;28;20183;-69
2021/12/11 00:35:02;;;;;;;0.38;0.38;;;3.20;99.00;;;;;;5053371;28;20192;-69
2021/12/11 00:37:28;;;;;;;0.40;0.40;;;3.20;99.20;;;;;;5053388;28;20188;-69
2021/12/11 00:39:59;;;;;;;0.30;0.30;;;3.30;99.20;;;;;;5053244;28;20176;-69
2021/12/11 00:42:32;;;;;;;0.30;0.30;;;3.40;99.10;;;;;;5053379;28;20827;-69
2021/12/11 00:44:59;;;;;;;0.40;0.40;;;3.50;98.80;;;;;;5053434;28;20189;-69
2021/12/11 00:47:32;;;;;;;0.30;0.30;;;3.20;98.70;;;;;;5053280;28;20165;-69
2021/12/11 00:50:08;;;;;;;0.30;0.30;;;3.30;99.20;;;;;;5053167;28;20173;-69
2021/12/11 00:52:40;;;;;;;0.40;0.40;;;3.30;99.10;;;;;;5053481;28;20176;-70
2021/12/11 00:55:29;;;;;;;0.38;0.38;;;3.40;99.00;;;;;;5053363;28;20196;-69
2021/12/11 00:58:06;;;;;;;0.40;0.40;;;3.30;98.90;;;;;;5051970;28;20184;-69
2021/12/11 01:00:37;;;;;;;0.30;0.30;;;3.30;99.20;;;;;;5053089;28;20180;-69
2021/12/11 01:03:04;;;;;;;0.30;0.30;;;3.30;99.20;;;;;;5053148;28;20282;-69
2021/12/11 01:05:35;;;;;;;0.30;0.30;;;3.20;99.20;;;;;;5053319;28;20200;-69
2021/12/11 01:08:10;;;;;;;0.30;0.30;;;3.20;99.20;;;;;;5053113;28;20162;-69
2021/12/11 01:10:36;;;;;;;0.40;0.40;;;3.30;99.20;;;;;;5051739;28;20185;-69
2021/12/11 01:13:04;;;;;;;0.40;0.40;;;3.20;99.30;;;;;;5053166;28;20173;-69
2021/12/11 01:15:35;;;;;;;0.40;0.40;;;3.20;99.20;;;;;;5052966;28;20193;-69
2021/12/11 01:18:22;;;;;;;0.40;0.40;;;3.30;99.30;;;;;;5053043;28;20208;-69
2021/12/11 01:21:00;;;;;;;0.30;0.30;;;3.40;99.20;;;;;;5052897;28;20208;-70
2021/12/11 01:25:59;;;;;;;0.30;0.30;;;3.50;98.90;;;;;;5053240;28;20681;-69
2021/12/11 01:28:26;;;;;;;0.32;0.32;;;3.40;99.00;;;;;;5053073;28;20176;-69
2021/12/11 01:30:52;;;;;;;0.30;0.30;;;3.40;99.00;;;;;;5052746;28;20178;-69
2021/12/11 01:33:18;;;;;;;0.30;0.30;;;3.20;98.70;;;;;;5052845;28;20170;-69
2021/12/11 01:35:43;;;;;;;0.30;0.30;;;3.20;99.30;;;;;;5051365;28;20292;-69
2021/12/11 01:38:17;;;;;;;0.30;0.30;;;3.30;99.30;;;;;;5053192;28;20183;-69
2021/12/11 01:40:45;;;;;;;0.40;0.40;;;3.50;99.20;;;;;;5052683;28;20404;-69
2021/12/11 01:43:11;;;;;;;0.45;0.45;;;3.60;98.90;;;;;;5052544;28;20611;-69
2021/12/11 01:45:41;;;;;;;0.30;0.30;;;3.50;98.90;;;;;;5052617;28;20193;-69
2021/12/11 01:48:07;;;;;;;0.35;0.35;;;3.30;98.90;;;;;;5052754;28;20426;-69
2021/12/11 01:50:42;;;;;;;0.30;0.30;;;3.30;99.00;;;;;;5054318;28;20174;-69
2021/12/11 01:53:24;;;;;;;0.40;0.40;;;3.30;98.90;;;;;;5056551;28;20165;-69
2021/12/11 01:55:58;;;;;;;0.40;0.40;;;3.20;99.20;;;;;;5056489;28;20208;-69
2021/12/11 01:58:36;;;;;;;0.30;0.30;;;3.20;99.30;;;;;;5056297;28;20176;-69
2021/12/11 02:01:14;;;;;;;0.30;0.30;;;3.20;99.10;;;;;;5056247;28;20174;-69
2021/12/11 02:03:40;;;;;;;0.30;0.30;;;3.20;99.30;;;;;;5056364;28;20225;-69
2021/12/11 02:06:07;;;;;;;0.30;0.30;;;3.10;99.30;;;;;;5056062;28;20194;-69
2021/12/11 02:08:36;;;;;;;0.30;0.30;;;3.10;99.40;;;;;;5055913;28;20208;-69
2021/12/11 02:11:09;;;;;;;0.30;0.30;;;3.00;99.30;;;;;;5055904;28;20172;-69
2021/12/11 02:13:54;;;;;;;0.30;0.30;;;2.80;99.50;;;;;;5056201;28;20176;-69
2021/12/11 02:16:19;;;;;;;0.30;0.30;;;2.40;99.90;;;;;;5055962;28;20271;-69
2021/12/11 02:18:50;;;;;;;0.30;0.30;;;2.70;99.90;;;;;;5056052;28;20299;-69
2021/12/11 02:21:36;;;;;;;0.35;0.35;;;2.80;99.90;;;;;;5055746;28;20181;-68
2021/12/11 02:24:08;;;;;;;0.40;0.40;;;3.10;99.90;;;;;;5055879;28;20188;-69
2021/12/11 02:26:39;;;;;;;0.30;0.30;;;3.00;99.80;;;;;;5055694;28;20238;-69
2021/12/11 02:29:33;;;;;;;0.35;0.35;;;2.90;99.90;;;;;;5055745;28;20165;-69
2021/12/11 02:32:14;;;;;;;0.35;0.35;;;3.10;99.80;;;;;;5055914;28;20539;-69
2021/12/11 02:34:58;;;;;;;0.40;0.40;;;2.90;99.70;;;;;;5055766;28;20534;-69
2021/12/11 02:37:35;;;;;;;0.32;0.32;;;2.90;99.90;;;;;;5055584;28;20158;-69
2021/12/11 02:40:16;;;;;;;0.40;0.40;;;3.00;99.90;;;;;;5055374;28;20169;-69
2021/12/11 02:42:57;;;;;;;0.30;0.30;;;2.90;99.90;;;;;;5055340;28;20209;-69
2021/12/11 02:45:42;;;;;;;0.32;0.32;;;2.70;99.90;;;;;;5055488;28;20627;-69
2021/12/11 02:48:19;;;;;;;0.40;0.40;;;2.70;99.90;;;;;;5055607;28;20561;-69
2021/12/11 02:50:54;;;;;;;0.40;0.40;;;2.50;99.90;;;;;;5055357;28;20177;-69
2021/12/11 02:53:26;;;;;;;0.30;0.30;;;2.80;99.90;;;;;;5055503;28;20204;-69
2021/12/11 02:56:09;;;;;;;0.30;0.30;;;3.00;99.90;;;;;;5055190;28;20622;-69
2021/12/11 02:58:41;;;;;;;0.40;0.40;;;3.10;99.90;;;;;;5055378;28;20180;-69
2021/12/11 03:01:24;;;;;;;0.40;0.40;;;3.20;99.90;;;;;;5055009;28;20205;-69
2021/12/11 03:03:59;;;;;;;0.30;0.30;;;3.30;99.70;;;;;;5055220;28;20284;-69
2021/12/11 03:06:28;;;;;;;0.40;0.40;;;3.30;99.30;;;;;;5054942;28;20199;-69
2021/12/11 03:08:57;;;;;;;0.30;0.30;;;3.10;99.20;;;;;;5054946;28;20177;-69
2021/12/11 03:11:27;;;;;;;0.40;0.40;;;3.20;99.50;;;;;;5054806;28;20169;-69
2021/12/11 03:13:55;;;;;;;0.30;0.30;;;3.30;99.30;;;;;;5054873;28;20675;-69
2021/12/11 03:16:27;;;;;;;0.30;0.30;;;3.50;99.40;;;;;;5054871;28;20336;-69
2021/12/11 03:18:56;;;;;;;0.38;0.38;;;3.50;99.10;;;;;;5054930;28;20172;-69
2021/12/11 03:21:22;;;;;;;0.30;0.30;;;3.50;99.10;;;;;;5054687;28;20257;-69
2021/12/11 03:23:49;;;;;;;0.30;0.30;;;3.50;99.00;;;;;;5054643;28;20671;-69
2021/12/11 03:26:15;;;;;;;0.30;0.30;;;3.50;98.80;;;;;;5054640;28;20435;-69
2021/12/11 03:28:42;;;;;;;0.30;0.30;;;3.50;98.70;;;;;;5054814;28;20177;-69
2021/12/11 03:31:08;;;;;;;0.30;0.30;;;3.20;98.80;;;;;;5054469;28;20399;-69
2021/12/11 03:33:38;;;;;;;0.30;0.30;;;3.20;99.30;;;;;;5054442;28;20205;-69
2021/12/11 03:36:08;;;;;;;0.32;0.32;;;3.30;99.40;;;;;;5054428;28;20216;-69
2021/12/11 03:38:36;;;;;;;0.40;0.40;;;3.40;99.50;;;;;;5054756;28;20204;-69
2021/12/11 03:41:04;;;;;;;0.40;0.40;;;3.50;99.10;;;;;;5054376;28;20677;-69
2021/12/11 03:43:30;;;;;;;0.30;0.30;;;3.40;98.90;;;;;;5054199;28;20213;-69
2021/12/11 03:45:59;;;;;;;0.30;0.30;;;3.30;99.00;;;;;;5054262;28;20586;-69
2021/12/11 03:48:31;;;;;;;0.40;0.40;;;3.30;99.10;;;;;;5054168;28;20170;-69
2021/12/11 03:50:58;;;;;;;0.40;0.40;;;3.10;99.30;;;;;;5054027;28;20638;-68
2021/12/11 03:53:25;;;;;;;0.32;0.32;;;3.00;99.40;;;;;;5054174;28;20242;-70
2021/12/11 03:55:59;;;;;;;0.40;0.40;;;3.10;99.50;;;;;;5053990;28;20670;-69
2021/12/11 03:58:25;;;;;;;0.38;0.38;;;3.00;99.60;;;;;;5054271;28;20196;-69
2021/12/11 04:01:10;;;;;;;0.30;0.30;;;3.20;99.70;;;;;;5053883;28;20178;-69
2021/12/11 04:03:38;;;;;;;0.35;0.35;;;3.30;99.60;;;;;;5054157;28;20467;-69
2021/12/11 04:06:10;;;;;;;0.38;0.38;;;3.10;99.30;;;;;;5054074;28;20188;-69
2021/12/11 04:08:41;;;;;;;0.30;0.30;;;2.80;99.80;;;;;;5054019;28;20201;-70
2021/12/11 04:11:29;;;;;;;0.40;0.40;;;2.90;99.90;;;;;;5053950;28;20658;-69
2021/12/11 04:14:01;;;;;;;0.30;0.30;;;2.90;99.90;;;;;;5053401;28;20176;-69
2021/12/11 04:16:28;;;;;;;0.38;0.38;;;3.10;99.90;;;;;;5053694;28;20204;-69
2021/12/11 04:18:54;;;;;;;0.30;0.30;;;3.20;99.80;;;;;;5053779;28;20187;-69
2021/12/11 04:21:22;;;;;;;0.30;0.30;;;3.20;99.50;;;;;;5053541;28;20226;-69
2021/12/11 04:23:48;;;;;;;0.40;0.40;;;3.20;99.60;;;;;;5053740;28;20661;-69
2021/12/11 04:26:14;;;;;;;0.32;0.32;;;3.20;99.40;;;;;;5053513;28;20201;-70
2021/12/11 04:28:41;;;;;;;0.30;0.30;;;3.30;99.50;;;;;;5053577;28;20169;-69
2021/12/11 04:31:11;;;;;;;0.30;0.30;;;3.30;99.60;;;;;;5053471;28;20417;-69
2021/12/11 04:33:46;;;;;;;0.30;0.30;;;3.40;99.50;;;;;;5053725;28;20642;-69
2021/12/11 04:36:17;;;;;;;0.30;0.30;;;3.50;99.30;;;;;;5053450;28;20188;-69
2021/12/11 04:38:44;;;;;;;0.30;0.30;;;3.60;99.10;;;;;;5053427;28;20180;-69
2021/12/11 04:41:15;;;;;;;0.30;0.30;;;3.50;98.80;;;;;;5053337;28;20171;-69
2021/12/11 04:43:42;;;;;;;0.32;0.32;;;3.50;98.90;;;;;;5053366;28;20206;-69
2021/12/11 04:46:10;;;;;;;0.40;0.40;;;3.60;98.90;;;;;;5053272;28;20279;-69
2021/12/11 04:48:54;;;;;;;0.30;0.30;;;3.60;98.60;;;;;;5053539;28;20635;-69
2021/12/11 04:51:31;;;;;;;0.30;0.30;;;3.70;98.50;;;;;;5053252;28;20165;-69
2021/12/11 04:56:40;;;;;;;0.40;0.40;;;3.60;98.30;;;;;;5053477;28;20199;-69
2021/12/11 04:59:40;;;;;;;0.38;0.38;;;3.50;98.30;;;;;;5053372;28;20165;-69
2021/12/11 05:07:28;;;;;;;0.30;0.30;;;3.50;98.60;;;;;;5053515;28;20167;-70
2021/12/11 05:10:06;;;;;;;0.30;0.30;;;3.60;98.50;;;;;;5053341;28;20183;-69
2021/12/11 05:14:59;;;;;;;0.35;0.35;;;3.40;98.40;;;;;;5053084;28;20671;-69
2021/12/11 05:17:25;;;;;;;0.30;0.30;;;3.20;98.50;;;;;;5053223;28;20708;-69
2021/12/11 05:19:51;;;;;;;0.30;0.30;;;3.20;98.80;;;;;;5053065;28;20224;-69
2021/12/11 05:22:17;;;;;;;0.30;0.30;;;3.20;98.80;;;;;;5053020;28;20172;-69
2021/12/11 05:24:50;;;;;;;0.30;0.30;;;3.00;99.40;;;;;;5053648;28;20198;-69
2021/12/11 05:27:16;;;;;;;0.30;0.30;;;3.10;99.30;;;;;;5057010;28;20157;-69
2021/12/11 05:29:43;;;;;;;0.40;0.40;;;3.20;99.20;;;;;;5056739;28;20176;-69
2021/12/11 05:32:14;;;;;;;0.30;0.30;;;3.40;99.10;;;;;;5057020;28;20532;-69
2021/12/11 05:34:41;;;;;;;0.30;0.30;;;3.40;98.70;;;;;;5056899;28;20176;-69
2021/12/11 05:37:07;;;;;;;0.30;0.30;;;3.50;98.50;;;;;;5055436;28;20174;-69
2021/12/11 05:39:33;;;;;;;0.40;0.40;;;3.50;98.30;;;;;;5056493;28;20184;-69
2021/12/11 05:41:59;;;;;;;0.37;0.37;;;3.50;98.30;;;;;;5056654;28;20185;-69
2021/12/11 05:44:25;;;;;;;0.50;0.50;;;3.50;98.40;;;;;;5056388;28;20541;-69
2021/12/11 05:46:52;;;;;;;0.37;0.37;;;3.50;98.10;;;;;;5056579;28;20245;-69
2021/12/11 05:49:19;;;;;;;0.30;0.30;;;3.50;98.00;;;;;;5056457;28;20307;-69
2021/12/11 05:51:47;;;;;;;0.40;0.40;;;3.60;98.10;;;;;;5056473;28;20639;-69
2021/12/11 05:54:18;;;;;;;0.30;0.30;;;3.60;98.10;;;;;;5056363;28;20236;-69
2021/12/11 05:56:44;;;;;;;0.30;0.30;;;3.50;98.00;;;;;;5056415;28;20190;-69
2021/12/11 05:59:13;;;;;;;0.30;0.30;;;3.60;98.10;;;;;;5056274;28;20172;-69
2021/12/11 06:01:46;;;;;;;0.30;0.30;;;3.60;98.00;;;;;;5056378;28;20408;-69
2021/12/11 06:04:19;;;;;;;0.30;0.30;;;3.60;97.80;;;;;;5056324;28;20245;-69
2021/12/11 06:06:46;;;;;;;0.38;0.38;;;3.60;97.70;;;;;;5056079;28;20584;-69
2021/12/11 06:09:14;;;;;;;0.30;0.30;;;3.60;97.70;;;;;;5056020;28;20177;-70
2021/12/11 06:11:43;;;;;;;0.30;0.30;;;3.60;97.80;;;;;;5056334;28;20193;-69
2021/12/11 06:14:09;;;;;;;0.40;0.40;;;3.50;97.80;;;;;;5056134;28;20177;-69
2021/12/11 06:16:35;;;;;;;0.30;0.30;;;3.50;97.70;;;;;;5055869;28;20626;-69
2021/12/11 06:19:02;;;;;;;0.40;0.40;;;3.50;97.80;;;;;;5055945;28;20439;-69
2021/12/11 06:21:29;;;;;;;0.30;0.30;;;3.60;97.90;;;;;;5055819;28;20426;-69
2021/12/11 06:23:54;;;;;;;0.40;0.40;;;3.70;97.90;;;;;;5055939;28;20219;-69
2021/12/11 06:26:20;;;;;;;0.30;0.30;;;3.60;97.70;;;;;;5055749;28;20193;-69
2021/12/11 06:28:46;;;;;;;0.40;0.40;;;3.60;97.70;;;;;;5055880;28;20528;-69
2021/12/11 06:31:18;;;;;;;0.30;0.30;;;3.60;97.70;;;;;;5055499;28;20170;-69
2021/12/11 06:33:45;;;;;;;0.40;0.40;;;3.60;97.80;;;;;;5055696;28;20180;-69
2021/12/11 06:36:13;;;;;;;0.30;0.30;;;3.60;97.90;;;;;;5055149;28;20200;-69
2021/12/11 06:38:40;;;;;;;0.30;0.30;;;3.60;98.00;;;;;;5055666;28;20168;-69
2021/12/11 06:41:08;;;;;;;0.30;0.30;;;3.60;98.00;;;;;;5055516;28;20266;-69
2021/12/11 06:43:34;;;;;;;0.30;0.30;;;3.70;97.90;;;;;;5055311;28;20210;-69
2021/12/11 06:46:01;;;;;;;0.40;0.40;;;3.70;97.80;;;;;;5055138;28;20247;-69
2021/12/11 06:48:27;;;;;;;0.30;0.30;;;3.70;97.80;;;;;;5055366;28;20629;-69
2021/12/11 06:50:53;;;;;;;0.30;0.30;;;3.70;97.60;;;;;;5055351;28;20577;-69
2021/12/11 06:53:28;;;;;;;0.30;0.30;;;3.70;97.70;;;;;;5055398;28;20169;-69
2021/12/11 06:55:54;;;;;;;0.40;0.40;;;3.70;97.80;;;;;;5055273;28;20282;-69
2021/12/11 06:58:19;;;;;;;0.30;0.30;;;3.80;97.70;;;;;;5055351;28;20210;-69
2021/12/11 07:00:46;;;;;;;0.30;0.30;;;3.70;97.60;;;;;;5055043;28;20255;-69
2021/12/11 07:03:12;;;;;;;0.30;0.30;;;3.50;97.60;;;;;;5055026;28;20563;-70
2021/12/11 07:05:38;;;;;;;0.30;0.30;;;3.50;98.00;;;;;;5055076;28;20204;-69
2021/12/11 07:08:06;;;;;;;0.30;0.30;;;3.60;98.10;;;;;;5054988;28;20169;-69
2021/12/11 07:10:33;;;;;;;0.30;0.30;;;3.70;98.10;;;;;;5054715;28;20196;-69
2021/12/11 07:12:59;;;;;;;0.30;0.30;;;3.80;98.00;;;;;;5054908;28;20185;-69
2021/12/11 07:15:25;;;;;;;0.30;0.30;;;3.70;97.90;;;;;;5054774;28;20192;-70
2021/12/11 07:17:51;;;;;;;0.30;0.30;;;3.80;98.10;;;;;;5054911;28;20186;-69
2021/12/11 07:20:16;;;;;;;0.30;0.30;;;3.80;98.00;;;;;;5054556;28;20419;-69
2021/12/11 07:22:43;;;;;;;0.40;0.40;;;3.90;97.80;;;;;;5054686;28;20571;-69
2021/12/11 07:25:18;;;;;;;0.30;0.30;;;4.00;97.70;;;;;;5054726;28;20500;-69
2021/12/11 07:27:45;;;;;;;0.30;0.30;;;3.90;97.60;;;;;;5054852;28;20534;-70
2021/12/11 07:30:13;;;;;;;0.30;0.30;;;3.90;97.60;;;;;;5054570;28;20170;-69
2021/12/11 07:32:39;;;;;;;0.30;0.30;;;4.00;97.60;;;;;;5054666;28;20203;-70
2021/12/11 07:35:06;;;;;;;0.30;0.30;;;4.00;97.40;;;;;;5054535;28;20263;-69
2021/12/11 07:37:32;;;;;;;0.30;0.30;;;4.00;97.40;;;;;;5054328;28;20510;-70
2021/12/11 07:39:58;;;;;;;0.30;0.30;;;4.00;97.40;;;;;;5054267;28;20595;-69
2021/12/11 07:42:24;;;;;;;0.30;0.30;;;4.10;97.40;;;;;;5054071;28;20834;-69
2021/12/11 07:44:50;;;;;;;0.30;0.30;;;4.10;97.10;;;;;;5054493;28;20198;-69
2021/12/11 07:47:15;;;;;;;0.40;0.40;;;4.10;97.00;;;;;;5053943;28;20169;-69
2021/12/11 07:49:42;;;;;;;0.40;0.40;;;4.10;96.90;;;;;;5053963;28;20627;-69
2021/12/11 07:52:08;;;;;;;0.38;0.38;;;4.00;96.90;;;;;;5054332;28;20523;-69
2021/12/11 07:54:34;;;;;;;0.30;0.30;;;3.80;97.20;;;;;;5054038;28;20249;-69
2021/12/11 07:57:00;;;;;;;0.40;0.40;;;3.80;97.50;;;;;;5054095;28;20212;-69
2021/12/11 07:59:26;;;;;;;0.40;0.40;;;3.90;97.50;;;;;;5053958;28;20502;-70
2021/12/11 08:01:53;;;;;;;0.30;0.30;;;3.90;97.50;;;;;;5054327;28;20212;-70
2021/12/11 08:04:21;;;;;;;0.40;0.40;;;4.10;97.60;;;;;;5054021;28;20259;-69
2021/12/11 08:06:47;;;;;;;0.30;0.30;;;4.10;97.40;;;;;;5053773;28;20247;-69
2021/12/11 08:09:17;;;;;;;0.30;0.30;;;4.20;97.30;;;;;;5053661;28;20178;-69
2021/12/11 08:11:43;;;;;;;0.40;0.40;;;4.30;97.20;;;;;;5053824;28;20169;-69
2021/12/11 08:14:10;;;;;;;0.40;0.40;;;4.40;97.00;;;;;;5053920;28;20185;-69
2021/12/11 08:16:45;;;;;;;0.35;0.35;;;4.50;96.90;;;;;;5053667;28;20197;-69
2021/12/11 08:19:17;;;;;;;0.30;0.30;;;4.20;96.40;;;;;;5053781;28;20173;-69
2021/12/11 08:21:46;;;;;;;0.50;0.50;;;4.10;96.70;;;;;;5053745;28;20174;-69
2021/12/11 08:24:11;;;;;;;0.30;0.30;;;4.10;96.80;;;;;;5053545;28;20194;-69
2021/12/11 08:26:39;;;;;;;0.40;0.40;;;4.20;96.90;;;;;;5053639;28;20200;-69
2021/12/11 08:29:06;;;;;;;0.30;0.30;;;4.20;96.70;;;;;;5053541;28;20162;-70
2021/12/11 08:31:32;;;;;;;0.40;0.40;;;4.20;96.80;;;;;;5053612;28;20210;-69
2021/12/11 08:33:58;;;;;;;0.30;0.30;;;4.30;96.70;;;;;;5054286;28;20576;-69
2021/12/11 08:36:25;;;;;;;0.40;0.40;;;4.40;96.70;;;;;;5053349;28;20279;-69
2021/12/11 08:38:54;;;;;;;0.30;0.30;;;4.30;96.70;;;;;;5053488;28;20413;-69
2021/12/11 08:41:24;;;;;;;0.30;0.30;;;4.20;96.90;;;;;;5053364;28;20188;-69
2021/12/11 08:43:58;;;;;;;0.40;0.40;;;4.10;96.90;;;;;;5053313;28;20284;-69
2021/12/11 08:46:27;;;;;;;0.35;0.35;;;4.20;97.20;;;;;;5053516;28;20560;-69
2021/12/11 08:48:56;;;;;;;0.30;0.30;;;4.30;97.10;;;;;;5053360;28;20176;-69
2021/12/11 08:51:28;;;;;;;0.30;0.30;;;4.30;96.80;;;;;;5053228;28;20621;-69
2021/12/11 08:53:55;;;;;;;0.30;0.30;;;4.00;96.80;;;;;;5053531;28;20172;-69
2021/12/11 08:56:22;;;;;;;0.30;0.30;;;4.00;97.10;;;;;;5053268;28;20272;-69
2021/12/11 08:58:49;;;;;;;0.30;0.30;;;4.00;97.30;;;;;;5053937;28;20189;-69
2021/12/11 09:01:18;;;;;;;0.30;0.30;;;4.00;97.20;;;;;;5057270;28;20180;-69
2021/12/11 09:03:49;;;;;;;0.30;0.30;;;4.10;97.30;;;;;;5057215;28;20604;-69
2021/12/11 09:06:37;;;;;;;0.30;0.30;;;4.20;97.20;;;;;;5057201;28;20201;-69
2021/12/11 09:09:10;;;;;;;0.32;0.32;;;4.30;96.80;;;;;;5057485;28;20165;-69
2021/12/11 09:11:39;;;;;;;0.30;0.30;;;4.30;96.60;;;;;;5057384;28;20220;-70
2021/12/11 09:14:15;;;;;;;0.30;0.30;;;4.40;96.80;;;;;;5057171;28;20260;-69
2021/12/11 09:16:47;;;;;;;0.40;0.40;;;4.50;96.50;;;;;;5057124;28;20200;-69
2021/12/11 09:19:18;;;;;;;0.30;0.30;;;4.60;96.50;;;;;;5057063;28;20198;-69
2021/12/11 09:22:02;;;;;;;0.30;0.30;;;4.70;96.10;;;;;;5056910;28;20295;-69
2021/12/11 09:24:38;;;;;;;0.30;0.30;;;4.80;95.80;;;;;;5056834;28;20738;-69
2021/12/11 09:27:25;;;;;;;0.30;0.30;;;4.90;95.70;;;;;;5057068;28;20278;-70
2021/12/11 09:30:01;;;;;;;0.30;0.30;;;4.80;95.70;;;;;;5056824;28;20173;-69
2021/12/11 09:32:39;;;;;;;0.40;0.40;;;4.90;95.70;;;;;;5057192;28;20185;-69
2021/12/11 09:35:04;;;;;;;0.32;0.32;;;4.90;95.70;;;;;;5056782;28;20194;-69
2021/12/11 09:37:31;;;;;;;0.30;0.30;;;5.00;95.80;;;;;;5056809;28;20628;-69
2021/12/11 09:40:07;;;;;;;0.30;0.30;;;5.10;95.90;;;;;;5056643;28;20170;-69
2021/12/11 09:42:32;;;;;;;0.30;0.30;;;5.20;95.50;;;;;;5056474;28;20185;-69
2021/12/11 09:45:20;;;;;;;0.37;0.37;;;5.30;95.20;;;;;;5056446;28;20190;-69
2021/12/11 09:47:51;;;;;;;0.40;0.40;;;5.20;95.20;;;;;;5056521;28;20177;-69
2021/12/11 09:50:29;;;;;;;0.30;0.30;;;5.30;95.70;;;;;;5056428;28;20223;-69
2021/12/11 09:52:56;;;;;;;0.30;0.30;;;5.40;95.00;;;;;;5056601;28;20187;-69
2021/12/11 09:55:27;;;;;;;0.30;0.30;;;5.10;94.80;;;;;;5056536;28;20221;-69
2021/12/11 09:58:00;;;;;;;0.40;0.40;;;5.00;95.10;;;;;;5056550;28;20223;-69
2021/12/11 10:00:44;;;;;;;0.40;0.40;;;4.90;95.60;;;;;;5056404;28;20260;-69
2021/12/11 10:03:13;;;;;;;0.68;0.68;;;5.00;95.60;;;;;;5056161;28;20186;-69
2021/12/11 10:05:46;;;;;;;0.40;0.40;;;5.10;95.60;;;;;;5056033;28;20264;-69
2021/12/11 10:08:37;;;;;;;0.40;0.40;;;5.30;95.00;;;;;;5054942;28;20228;-69
2021/12/11 10:11:15;;;;;;;0.30;0.30;;;5.60;95.00;;;;;;5055364;28;20170;-69
2021/12/11 10:13:48;;;;;;;0.38;0.38;;;5.50;94.00;;;;;;5056244;28;20205;-69
2021/12/11 10:16:17;;;;;;;0.30;0.30;;;5.50;93.90;;;;;;5056150;28;20194;-69
2021/12/11 10:18:44;;;;;;;0.40;0.40;;;5.60;93.90;;;;;;5055934;28;20239;-70
2021/12/11 10:21:19;;;;;;;0.90;0.90;;;5.70;93.70;;;;;;5055811;28;20518;-70
2021/12/11 10:23:48;;;;;;;0.40;0.40;;;5.90;93.80;;;;;;5055938;28;20225;-70
2021/12/11 10:26:15;;;;;;;0.40;0.40;;;6.30;93.40;;;;;;5055820;28;20206;-69
2021/12/11 10:28:44;;;;;;;0.40;0.40;;;6.30;92.20;;;;;;5055695;28;20173;-70
2021/12/11 10:31:21;;;;;;;0.40;0.40;;;6.30;92.30;;;;;;5055553;28;20189;-69
2021/12/11 10:33:47;;;;;;;0.40;0.40;;;6.00;92.00;;;;;;5055596;28;20228;-70
2021/12/11 10:36:16;;;;;;;0.32;0.32;;;6.10;92.30;;;;;;5055486;28;20198;-70
2021/12/11 10:38:44;;;;;;;0.40;0.40;;;6.30;92.20;;;;;;5055352;28;20178;-69
2021/12/11 10:41:12;;;;;;;0.40;0.40;;;6.40;91.90;;;;;;5055364;28;20170;-69
2021/12/11 10:43:46;;;;;;;0.40;0.40;;;6.40;91.80;;;;;;5055294;28;20202;-70
2021/12/11 10:46:14;;;;;;;0.40;0.40;;;6.40;92.40;;;;;;5055396;28;20210;-70
2021/12/11 10:48:42;;;;;;;0.40;0.40;;;6.30;92.30;;;;;;5055592;28;20267;-70
2021/12/11 10:51:20;;;;;;;0.30;0.30;;;6.20;91.90;;;;;;5055352;28;20167;-69
2021/12/11 10:53:50;;;;;;;0.40;0.40;;;6.20;91.90;;;;;;5055284;28;20194;-69
2021/12/11 10:56:22;;;;;;;0.50;0.50;;;6.20;92.00;;;;;;5055148;28;20205;-70
2021/12/11 10:59:03;;;;;;;0.40;0.40;;;6.30;92.20;;;;;;5055304;28;20166;-70
2021/12/11 11:01:40;;;;;;;0.30;0.30;;;6.10;91.70;;;;;;5055245;28;20174;-69
2021/12/11 11:04:16;;;;;;;0.30;0.30;;;5.90;92.10;;;;;;5054996;28;20221;-70
2021/12/11 11:06:45;;;;;;;0.30;0.30;;;5.80;92.50;;;;;;5055317;28;20611;-69
2021/12/11 11:09:12;;;;;;;0.30;0.30;;;5.90;93.10;;;;;;5055005;28;20158;-70
2021/12/11 11:11:39;;;;;;;0.40;0.40;;;5.80;92.50;;;;;;5055070;28;20650;-69
2021/12/11 11:14:07;;;;;;;0.40;0.40;;;5.70;92.50;;;;;;5054955;28;20535;-69
2021/12/11 11:16:34;;;;;;;0.30;0.30;;;5.90;92.90;;;;;;5054776;28;20212;-69
2021/12/11 11:19:00;;;;;;;0.40;0.40;;;5.90;92.90;;;;;;5054853;28;20192;-69
2021/12/11 11:21:34;;;;;;;0.40;0.40;;;6.10;92.70;;;;;;5054528;28;20185;-70
2021/12/11 11:24:01;;;;;;;0.40;0.40;;;6.10;92.60;;;;;;5053701;28;20205;-70
2021/12/11 11:26:30;;;;;;;0.38;0.38;;;6.20;92.40;;;;;;5054572;28;20273;-69
2021/12/11 11:29:02;;;;;;;0.40;0.40;;;6.40;92.60;;;;;;5054637;28;20578;-69
2021/12/11 11:31:34;;;;;;;0.40;0.40;;;6.50;92.00;;;;;;5054444;28;20167;-69
2021/12/11 11:34:01;;;;;;;0.38;0.38;;;6.60;92.00;;;;;;5054583;28;20174;-70
2021/12/11 11:36:28;;;;;;;0.40;0.40;;;6.60;92.00;;;;;;5054436;28;20190;-70
2021/12/11 11:38:57;;;;;;;0.32;0.32;;;6.40;91.60;;;;;;5054528;28;20302;-69
2021/12/11 11:41:29;;;;;;;0.30;0.30;;;6.50;92.20;;;;;;5054126;28;20174;-69
2021/12/11 11:43:55;;;;;;;0.40;0.40;;;6.60;92.00;;;;;;5054189;28;20204;-69
2021/12/11 11:46:24;;;;;;;0.35;0.35;;;6.50;91.70;;;;;;5054162;28;20560;-70
2021/12/11 11:48:52;;;;;;;0.38;0.38;;;6.40;92.10;;;;;;5054508;28;20166;-69
2021/12/11 11:51:43;;;;;;;0.40;0.40;;;6.30;92.50;;;;;;5054164;28;20174;-69
2021/12/11 11:54:10;;;;;;;0.40;0.40;;;6.30;92.70;;;;;;5054362;28;20182;-69
2021/12/11 11:56:41;;;;;;;0.30;0.30;;;6.40;92.50;;;;;;5054015;28;20194;-69
2021/12/11 11:59:09;;;;;;;0.40;0.40;;;6.50;92.40;;;;;;5054111;28;20503;-70
2021/12/11 12:01:42;;;;;;;0.30;0.30;;;6.50;92.40;;;;;;5054200;28;20273;-70
2021/12/11 12:04:11;;;;;;;0.40;0.40;;;6.70;92.10;;;;;;5054191;28;20584;-69
2021/12/11 12:06:38;;;;;;;0.40;0.40;;;6.70;92.10;;;;;;5053801;28;20190;-69
2021/12/11 12:09:08;;;;;;;0.38;0.38;;;6.70;92.60;;;;;;5053965;28;20236;-69
2021/12/11 12:11:35;;;;;;;0.30;0.30;;;6.60;92.50;;;;;;5054159;28;20170;-70
2021/12/11 12:14:03;;;;;;;0.57;0.57;;;6.40;92.10;;;;;;5053924;28;20174;-69
2021/12/11 12:16:32;;;;;;;0.35;0.35;;;6.10;92.50;;;;;;5053661;28;20251;-69
2021/12/11 12:18:59;;;;;;;0.40;0.40;;;6.10;92.90;;;;;;5054112;28;20304;-69
2021/12/11 12:21:25;;;;;;;0.40;0.40;;;5.90;92.90;;;;;;5053557;28;20185;-69
2021/12/11 12:23:51;;;;;;;0.37;0.37;;;5.80;93.20;;;;;;5053984;28;20197;-69
2021/12/11 12:26:23;;;;;;;0.40;0.40;;;5.90;93.50;;;;;;5053509;28;20797;-69
2021/12/11 12:28:51;;;;;;;0.40;0.40;;;6.00;93.50;;;;;;5053729;28;20806;-70
2021/12/11 12:31:27;;;;;;;0.30;0.30;;;5.90;93.40;;;;;;5053542;28;20173;-69
2021/12/11 12:33:55;;;;;;;0.40;0.40;;;5.80;93.80;;;;;;5053252;28;20173;-70
2021/12/11 12:36:22;;;;;;;0.40;0.40;;;5.90;93.80;;;;;;5053402;28;20281;-70
2021/12/11 12:38:49;;;;;;;0.30;0.30;;;5.90;93.70;;;;;;5053552;28;20223;-69
2021/12/11 12:41:18;;;;;;;0.40;0.40;;;5.90;93.60;;;;;;5053354;28;20543;-70
2021/12/11 12:46:42;;;;;;;0.40;0.40;;;5.80;93.90;;;;;;5053516;28;20239;-69
2021/12/11 12:49:08;;;;;;;0.30;0.30;;;5.70;93.80;;;;;;5053355;28;20193;-69
2021/12/11 12:51:35;;;;;;;0.40;0.40;;;5.80;94.00;;;;;;5053501;28;20170;-70
2021/12/11 12:54:05;;;;;;;0.30;0.30;;;5.90;94.00;;;;;;5053295;28;20542;-70
2021/12/11 12:56:36;;;;;;;0.40;0.40;;;5.70;93.60;;;;;;5053384;28;20194;-69
2021/12/11 12:59:15;;;;;;;0.40;0.40;;;5.70;94.00;;;;;;5053683;28;20257;-69
2021/12/11 13:01:47;;;;;;;0.38;0.38;;;5.80;93.80;;;;;;5053612;28;20244;-69
2021/12/11 13:04:16;;;;;;;0.30;0.30;;;5.70;93.60;;;;;;5053483;28;20194;-69
2021/12/11 13:06:46;;;;;;;0.40;0.40;;;5.90;93.90;;;;;;5053073;28;20288;-69
2021/12/11 13:09:20;;;;;;;0.30;0.30;;;5.90;93.70;;;;;;5053062;28;20204;-70
2021/12/11 13:12:09;;;;;;;0.35;0.35;;;6.00;93.80;;;;;;5053385;28;20261;-70
2021/12/11 13:14:36;;;;;;;0.30;0.30;;;6.00;93.80;;;;;;5053278;28;20556;-69
2021/12/11 13:17:08;;;;;;;0.40;0.40;;;5.90;93.40;;;;;;5052994;28;20174;-69
2021/12/11 13:19:42;;;;;;;0.40;0.40;;;5.80;93.70;;;;;;5053201;28;20188;-69
2021/12/11 13:22:18;;;;;;;0.40;0.40;;;5.80;93.70;;;;;;5053103;28;20181;-70
2021/12/11 13:24:49;;;;;;;0.35;0.35;;;5.70;93.70;;;;;;5052918;28;20203;-69
2021/12/11 13:27:17;;;;;;;0.40;0.40;;;5.60;94.20;;;;;;5053258;28;20151;-69
2021/12/11 13:29:46;;;;;;;0.40;0.40;;;5.50;94.30;;;;;;5052960;28;20166;-69
2021/12/11 13:32:17;;;;;;;0.40;0.40;;;5.40;94.60;;;;;;5053113;28;20655;-69